»·PEaware :: UAL1399 KEGE-KTEX

UAL1399 :: KEGE-KTEX

FLIGHT INFORMATION

Flight Status: Arrived
Operator:
United Airlines
More flights by this operator :: More flights under this callsign
Pilot: David C. (16084)
Aircraft: DEHAVILLAND DASH 8 400
(DH8D)
More flights by this aircraft type
Origin: KEGE Eagle Co Regl
United States
Destination: KTEX Telluride Regl
United States
More flights between these airports :: More routes between these airports
Route: BEVVR1 SPRKT JNC ETL
File this flight plan on PilotEdge
Remarks:
Altitude:
(Current/Filed)
18,000ft
Speed:
(Current/Filed)
324kts
Departed: 19-Oct-23 11:39 AM
Arrived: 19-Oct-23 12:15 PM
Distance/Time
Traveled:
111nm/0:35
Distance/Time
To Go:
Arrived

Flight Plot

Page will automatically refresh every two minutes.

Flight plan parsing failed; only flown route is shown


Map Options




Map Legend


Flown Route
Filed Route
Departure Airport
Arrival Airport
Navaid (VOR, NDB)
Fix

Horizontal Profiles

Position Reports

Time Latitude Longitude Heading Altitude Ground
Speed
19-Oct-23 11:10 39.640980 -106.912162 172 6552ft 0kts
19-Oct-23 11:11 39.640980 -106.912162 172 6552ft 0kts
19-Oct-23 11:12 39.640980 -106.912162 172 6552ft 0kts
19-Oct-23 11:13 39.640980 -106.912162 172 6552ft 0kts
19-Oct-23 11:14 39.640980 -106.912162 172 6552ft 0kts
19-Oct-23 11:15 39.640980 -106.912162 172 6552ft 0kts
19-Oct-23 11:16 39.640980 -106.912162 172 6552ft 0kts
19-Oct-23 11:17 39.640980 -106.912162 172 6552ft 0kts
19-Oct-23 11:18 39.640980 -106.912162 172 6552ft 0kts
19-Oct-23 11:19 39.640980 -106.912162 172 6552ft 0kts
19-Oct-23 11:20 39.640980 -106.912162 172 6552ft 0kts
19-Oct-23 11:21 39.640980 -106.912162 172 6552ft 0kts
19-Oct-23 11:22 39.640980 -106.912162 172 6552ft 0kts
19-Oct-23 11:23 39.640980 -106.912162 172 6552ft 0kts
19-Oct-23 11:24 39.640980 -106.912162 172 6552ft 0kts
19-Oct-23 11:25 39.640980 -106.912162 172 6552ft 0kts
19-Oct-23 11:26 39.640980 -106.912162 172 6552ft 0kts
19-Oct-23 11:27 39.640980 -106.912162 172 6552ft 0kts
19-Oct-23 11:28 39.640980 -106.912162 172 6552ft 0kts
19-Oct-23 11:29 39.640980 -106.912162 172 6552ft 0kts
19-Oct-23 11:30 39.641375 -106.912557 98 6552ft 2kts
19-Oct-23 11:31 39.641378 -106.912868 93 6552ft 0kts
19-Oct-23 11:32 39.641378 -106.912868 93 6552ft 0kts
19-Oct-23 11:33 39.641378 -106.912868 93 6552ft 0kts
19-Oct-23 11:34 39.642131 -106.911749 78 6552ft 12kts
19-Oct-23 11:35 39.642772 -106.905708 82 6552ft 18kts
19-Oct-23 11:36 39.643343 -106.900713 81 6552ft 12kts
19-Oct-23 11:37 39.643471 -106.900307 49 6552ft 0kts
19-Oct-23 11:38 39.642784 -106.915405 261 6554ft 147kts
19-Oct-23 11:39 39.613516 -106.958118 213 8352ft 182kts
19-Oct-23 11:40 39.580585 -107.006275 271 10442ft 194kts
19-Oct-23 11:41 39.590638 -107.073948 315 12567ft 201kts
19-Oct-23 11:42 39.639048 -107.110162 5 14479ft 224kts
19-Oct-23 11:43 39.701001 -107.094019 8 15817ft 228kts
19-Oct-23 11:44 39.751614 -107.127638 308 16944ft 225kts
19-Oct-23 11:45 39.787826 -107.194891 306 18077ft 228kts
19-Oct-23 11:46 39.825368 -107.266623 306 18456ft 259kts
19-Oct-23 11:47 39.868665 -107.349881 306 18455ft 294kts
19-Oct-23 11:48 39.916161 -107.441603 305 18451ft 315kts
19-Oct-23 11:49 39.942526 -107.547738 253 18448ft 340kts
19-Oct-23 11:50 39.882255 -107.646703 232 18447ft 354kts
19-Oct-23 11:51 39.810595 -107.733123 202 18448ft 363kts
19-Oct-23 11:52 39.710600 -107.756997 194 18449ft 366kts
19-Oct-23 11:53 39.611778 -107.786064 195 18448ft 366kts
19-Oct-23 11:54 39.512691 -107.816351 196 18448ft 366kts
19-Oct-23 11:55 39.413533 -107.846720 196 18448ft 366kts
19-Oct-23 11:56 39.314580 -107.876946 196 18449ft 366kts
19-Oct-23 11:57 39.215474 -107.907140 195 18448ft 367kts
19-Oct-23 11:58 39.116424 -107.937226 195 18448ft 367kts
19-Oct-23 11:59 39.017149 -107.967300 195 18446ft 367kts
19-Oct-23 12:00 38.917645 -107.997348 195 18424ft 367kts
19-Oct-23 12:01 38.817874 -108.027390 195 18422ft 363kts
19-Oct-23 12:02 38.720024 -108.056799 195 18437ft 362kts
19-Oct-23 12:03 38.622042 -108.086136 194 18451ft 361kts
19-Oct-23 12:04 38.524482 -108.115260 194 18451ft 359kts
19-Oct-23 12:05 38.427531 -108.144126 194 18468ft 357kts
19-Oct-23 12:06 38.331970 -108.172409 194 18042ft 347kts
19-Oct-23 12:07 38.237229 -108.200506 194 16544ft 357kts
19-Oct-23 12:08 38.142926 -108.197022 159 14738ft 328kts
19-Oct-23 12:09 38.063765 -108.156798 144 12889ft 289kts
19-Oct-23 12:10 38.019939 -108.084696 119 12020ft 221kts
19-Oct-23 12:11 37.991012 -108.025318 121 11318ft 180kts
19-Oct-23 12:12 37.968623 -107.971107 114 10313ft 172kts
19-Oct-23 12:13 37.954700 -107.912857 106 9062ft 163kts
19-Oct-23 12:14 37.952338 -107.896879 320 9080ft 7kts
19-Oct-23 12:15 37.953401 -107.901102 298 9080ft 12kts
19-Oct-23 12:16 37.954576 -107.902343 13 9080ft 0kts
19-Oct-23 12:17 37.954576 -107.902343 13 9080ft 0kts
19-Oct-23 12:18 37.954576 -107.902343 13 9080ft 0kts

Navigation Log

Ident Type
Flight plan parsing failed, navigation log unavailable